WMT421 LSZH-LIRF
Flight info
| Callsign | WMT421 |
|---|---|
| Flight time | 1h 3m |
| Altitude | 37000 |
| Route | VEBIT T53 GERSA DCT SOSON DCT ODINA DCT EKPAL DCT TINKU DCT XIBIL |
| Aircraft | A320/M-SDE3FGHIRWY/LB1 |
Departure
| Time | 2026-02-19 10:14 |
|---|---|
| Airport | Zürich Airport (LSZH) |
Arrival
| Time | 2026-02-19 11:18 |
|---|---|
| Airport | Rome–Fiumicino Leonardo da Vinci International Airport (LIRF) |
| Time | Latitude | Longitude | Altitude | Speed | Heading |
|---|---|---|---|---|---|
| 2026-02-19 09:55 | 47.46050 | 8.55587 | 1400 ft | 0 kts | 6° |
| 2026-02-19 10:04 | 47.46039 | 8.55585 | 1402 ft | 2 kts | 6° |
| 2026-02-19 10:04 | 47.46023 | 8.55582 | 1404 ft | 2 kts | 6° |
| 2026-02-19 10:05 | 47.46007 | 8.55580 | 1407 ft | 2 kts | 7° |
| 2026-02-19 10:05 | 47.45991 | 8.55577 | 1406 ft | 2 kts | 4° |
| 2026-02-19 10:05 | 47.45975 | 8.55579 | 1409 ft | 2 kts | 331° |
| 2026-02-19 10:05 | 47.45962 | 8.55593 | 1408 ft | 2 kts | 297° |
| 2026-02-19 10:06 | 47.45957 | 8.55614 | 1403 ft | 0 kts | 275° |
| 2026-02-19 10:07 | 47.45958 | 8.55610 | 1404 ft | 2 kts | 275° |
| 2026-02-19 10:07 | 47.45960 | 8.55570 | 1404 ft | 6 kts | 275° |
| 2026-02-19 10:08 | 47.45966 | 8.55473 | 1404 ft | 12 kts | 276° |
| 2026-02-19 10:08 | 47.45991 | 8.55138 | 1394 ft | 21 kts | 276° |
| 2026-02-19 10:08 | 47.46044 | 8.54932 | 1386 ft | 24 kts | 318° |
| 2026-02-19 10:09 | 47.46198 | 8.54822 | 1386 ft | 26 kts | 334° |
| 2026-02-19 10:09 | 47.46371 | 8.54700 | 1382 ft | 29 kts | 336° |
| 2026-02-19 10:09 | 47.46548 | 8.54587 | 1387 ft | 27 kts | 332° |
| 2026-02-19 10:09 | 47.46720 | 8.54461 | 1384 ft | 30 kts | 333° |
| 2026-02-19 10:10 | 47.46918 | 8.54338 | 1381 ft | 31 kts | 336° |
| 2026-02-19 10:10 | 47.47118 | 8.54201 | 1383 ft | 32 kts | 335° |
| 2026-02-19 10:10 | 47.47322 | 8.54060 | 1387 ft | 32 kts | 335° |
| 2026-02-19 10:10 | 47.47482 | 8.53949 | 1395 ft | 18 kts | 336° |
| 2026-02-19 10:11 | 47.47584 | 8.53870 | 1401 ft | 15 kts | 317° |
| 2026-02-19 10:11 | 47.47609 | 8.53784 | 1402 ft | 0 kts | 272° |
| 2026-02-19 10:11 | 47.47609 | 8.53776 | 1400 ft | 1 kts | 272° |
| 2026-02-19 10:11 | 47.47608 | 8.53756 | 1400 ft | 3 kts | 262° |
| 2026-02-19 10:12 | 47.47596 | 8.53730 | 1408 ft | 3 kts | 236° |
| 2026-02-19 10:12 | 47.47561 | 8.53630 | 1405 ft | 9 kts | 233° |
| 2026-02-19 10:12 | 47.47497 | 8.53643 | 1397 ft | 13 kts | 148° |
| 2026-02-19 10:13 | 47.47471 | 8.53661 | 1398 ft | 3 kts | 154° |
| 2026-02-19 10:13 | 47.47467 | 8.53665 | 1398 ft | 0 kts | 154° |
| 2026-02-19 10:13 | 47.47416 | 8.53701 | 1402 ft | 33 kts | 154° |
| 2026-02-19 10:13 | 47.46997 | 8.53991 | 1382 ft | 98 kts | 155° |
| 2026-02-19 10:14 | 47.46227 | 8.54522 | 1385 ft | 143 kts | 155° |
| 2026-02-19 10:14 | 47.44159 | 8.55874 | 2273 ft | 166 kts | 155° |
| 2026-02-19 10:14 | 47.43107 | 8.56603 | 2990 ft | 168 kts | 157° |
| 2026-02-19 10:15 | 47.42067 | 8.57442 | 3577 ft | 180 kts | 142° |
| 2026-02-19 10:15 | 47.41289 | 8.59056 | 3868 ft | 210 kts | 109° |
| 2026-02-19 10:15 | 47.41226 | 8.61306 | 4264 ft | 235 kts | 72° |
| 2026-02-19 10:15 | 47.42175 | 8.63281 | 4824 ft | 242 kts | 29° |
| 2026-02-19 10:16 | 47.43752 | 8.63909 | 5535 ft | 235 kts | 347° |
| 2026-02-19 10:16 | 47.45941 | 8.61076 | 7217 ft | 214 kts | 279° |
| 2026-02-19 10:16 | 47.45922 | 8.58903 | 8109 ft | 214 kts | 263° |
| 2026-02-19 10:17 | 47.45786 | 8.56689 | 8963 ft | 219 kts | 265° |
| 2026-02-19 10:17 | 47.45687 | 8.54434 | 9806 ft | 222 kts | 266° |
| 2026-02-19 10:17 | 47.45597 | 8.52124 | 10429 ft | 233 kts | 266° |
| 2026-02-19 10:17 | 47.45428 | 8.49621 | 10717 ft | 257 kts | 258° |
| 2026-02-19 10:18 | 47.44723 | 8.47075 | 10958 ft | 282 kts | 238° |
| 2026-02-19 10:18 | 47.43234 | 8.44997 | 11162 ft | 312 kts | 212° |
| 2026-02-19 10:18 | 47.41060 | 8.44115 | 11312 ft | 343 kts | 187° |
| 2026-02-19 10:18 | 47.38648 | 8.44175 | 11720 ft | 359 kts | 174° |
| 2026-02-19 10:19 | 47.36178 | 8.44930 | 12371 ft | 365 kts | 171° |
| 2026-02-19 10:19 | 47.33682 | 8.45733 | 13058 ft | 369 kts | 171° |
| 2026-02-19 10:19 | 47.31166 | 8.46551 | 13671 ft | 373 kts | 171° |
| 2026-02-19 10:19 | 47.28625 | 8.47388 | 14262 ft | 376 kts | 170° |
| 2026-02-19 10:20 | 47.26054 | 8.48238 | 14839 ft | 380 kts | 170° |
| 2026-02-19 10:20 | 47.20840 | 8.49955 | 15966 ft | 388 kts | 170° |
| 2026-02-19 10:20 | 47.18194 | 8.50822 | 16557 ft | 391 kts | 170° |
| 2026-02-19 10:21 | 47.15510 | 8.51533 | 17122 ft | 393 kts | 176° |
| 2026-02-19 10:21 | 47.10013 | 8.52316 | 18280 ft | 400 kts | 177° |
| 2026-02-19 10:21 | 47.07230 | 8.52719 | 18828 ft | 404 kts | 176° |
| 2026-02-19 10:22 | 47.04421 | 8.53126 | 19364 ft | 407 kts | 176° |
| 2026-02-19 10:22 | 47.01597 | 8.53536 | 19881 ft | 410 kts | 176° |
| 2026-02-19 10:22 | 46.98743 | 8.53953 | 20370 ft | 414 kts | 176° |
| 2026-02-19 10:22 | 46.95864 | 8.54375 | 20847 ft | 417 kts | 176° |
| 2026-02-19 10:23 | 46.92958 | 8.54797 | 21324 ft | 420 kts | 177° |
| 2026-02-19 10:23 | 46.90036 | 8.55217 | 21751 ft | 424 kts | 177° |
| 2026-02-19 10:23 | 46.88085 | 8.55496 | 22002 ft | 427 kts | 177° |
| 2026-02-19 10:23 | 46.85112 | 8.55920 | 22474 ft | 430 kts | 177° |
| 2026-02-19 10:24 | 46.82125 | 8.56348 | 22860 ft | 433 kts | 177° |
| 2026-02-19 10:24 | 46.75083 | 8.57356 | 23727 ft | 441 kts | 177° |
| 2026-02-19 10:24 | 46.73011 | 8.57652 | 23955 ft | 444 kts | 177° |
| 2026-02-19 10:25 | 46.69926 | 8.58090 | 24296 ft | 446 kts | 177° |
| 2026-02-19 10:25 | 46.66823 | 8.58532 | 24638 ft | 450 kts | 177° |
| 2026-02-19 10:25 | 46.63733 | 8.58971 | 24945 ft | 454 kts | 177° |
| 2026-02-19 10:25 | 46.60574 | 8.59420 | 25295 ft | 457 kts | 177° |
| 2026-02-19 10:26 | 46.57389 | 8.59872 | 25661 ft | 460 kts | 177° |
| 2026-02-19 10:26 | 46.54191 | 8.60324 | 26013 ft | 464 kts | 177° |
| 2026-02-19 10:26 | 46.50967 | 8.60780 | 26272 ft | 468 kts | 177° |
| 2026-02-19 10:26 | 46.47714 | 8.61242 | 26568 ft | 471 kts | 177° |
| 2026-02-19 10:27 | 46.44437 | 8.61712 | 26865 ft | 475 kts | 177° |
| 2026-02-19 10:27 | 46.41137 | 8.62188 | 27145 ft | 478 kts | 177° |
| 2026-02-19 10:27 | 46.37814 | 8.62763 | 27396 ft | 484 kts | 171° |
| 2026-02-19 10:27 | 46.34605 | 8.64306 | 27747 ft | 489 kts | 154° |
| 2026-02-19 10:28 | 46.31630 | 8.66714 | 28202 ft | 490 kts | 150° |
| 2026-02-19 10:28 | 46.25739 | 8.71687 | 28986 ft | 492 kts | 150° |
| 2026-02-19 10:28 | 46.22784 | 8.74198 | 29397 ft | 493 kts | 150° |
| 2026-02-19 10:29 | 46.19827 | 8.76706 | 29854 ft | 493 kts | 150° |
| 2026-02-19 10:29 | 46.16864 | 8.79214 | 30215 ft | 494 kts | 150° |
| 2026-02-19 10:29 | 46.13887 | 8.81726 | 30522 ft | 497 kts | 150° |
| 2026-02-19 10:29 | 46.10894 | 8.84243 | 30889 ft | 498 kts | 150° |
| 2026-02-19 10:30 | 46.07940 | 8.86722 | 31269 ft | 498 kts | 151° |
| 2026-02-19 10:30 | 46.04943 | 8.89233 | 31575 ft | 499 kts | 151° |
| 2026-02-19 10:30 | 46.01934 | 8.91750 | 31928 ft | 501 kts | 151° |
| 2026-02-19 10:30 | 45.98924 | 8.94267 | 32330 ft | 501 kts | 151° |
| 2026-02-19 10:31 | 45.95911 | 8.96782 | 32773 ft | 501 kts | 152° |
| 2026-02-19 10:31 | 45.92892 | 8.99297 | 33206 ft | 501 kts | 152° |
| 2026-02-19 10:31 | 45.89870 | 9.01813 | 33593 ft | 502 kts | 152° |
| 2026-02-19 10:31 | 45.86850 | 9.04326 | 33938 ft | 502 kts | 152° |
| 2026-02-19 10:32 | 45.83834 | 9.06835 | 34321 ft | 501 kts | 152° |
| 2026-02-19 10:32 | 45.77814 | 9.11830 | 35018 ft | 500 kts | 152° |
| 2026-02-19 10:32 | 45.74796 | 9.14329 | 35351 ft | 499 kts | 152° |
| 2026-02-19 10:33 | 45.71793 | 9.16812 | 35682 ft | 498 kts | 153° |
| 2026-02-19 10:33 | 45.68791 | 9.19292 | 36010 ft | 498 kts | 153° |
| 2026-02-19 10:33 | 45.65798 | 9.21767 | 36292 ft | 498 kts | 153° |
| 2026-02-19 10:33 | 45.62798 | 9.24247 | 36565 ft | 498 kts | 153° |
| 2026-02-19 10:34 | 45.56762 | 9.29215 | 36641 ft | 504 kts | 153° |
| 2026-02-19 10:34 | 45.50668 | 9.34207 | 36644 ft | 506 kts | 153° |
| 2026-02-19 10:35 | 45.44566 | 9.39195 | 36641 ft | 506 kts | 153° |
| 2026-02-19 10:35 | 45.38476 | 9.44162 | 36642 ft | 507 kts | 153° |
| 2026-02-19 10:36 | 45.29293 | 9.51632 | 36641 ft | 507 kts | 153° |
| 2026-02-19 10:37 | 45.23165 | 9.56612 | 36634 ft | 508 kts | 153° |
| 2026-02-19 10:37 | 45.17029 | 9.61571 | 36628 ft | 508 kts | 153° |
| 2026-02-19 10:38 | 45.10871 | 9.66534 | 36627 ft | 509 kts | 153° |
| 2026-02-19 10:38 | 45.04713 | 9.71494 | 36622 ft | 510 kts | 153° |
| 2026-02-19 10:39 | 44.98537 | 9.76456 | 36624 ft | 511 kts | 153° |
| 2026-02-19 10:39 | 44.92338 | 9.81415 | 36625 ft | 512 kts | 153° |
| 2026-02-19 10:40 | 44.86130 | 9.86371 | 36633 ft | 514 kts | 154° |
| 2026-02-19 10:40 | 44.76794 | 9.93816 | 36620 ft | 514 kts | 154° |
| 2026-02-19 10:41 | 44.70591 | 9.98738 | 36608 ft | 515 kts | 154° |
| 2026-02-19 10:41 | 44.64338 | 10.03695 | 36598 ft | 517 kts | 154° |
| 2026-02-19 10:42 | 44.58064 | 10.08651 | 36604 ft | 517 kts | 154° |
| 2026-02-19 10:42 | 44.51781 | 10.13603 | 36585 ft | 519 kts | 154° |
| 2026-02-19 10:43 | 44.45300 | 10.17920 | 36577 ft | 514 kts | 164° |
| 2026-02-19 10:43 | 44.38606 | 10.21457 | 36574 ft | 515 kts | 164° |
| 2026-02-19 10:44 | 44.28517 | 10.26779 | 36577 ft | 518 kts | 164° |
| 2026-02-19 10:45 | 44.21776 | 10.30335 | 36588 ft | 518 kts | 164° |
| 2026-02-19 10:45 | 44.15017 | 10.33893 | 36592 ft | 520 kts | 164° |
| 2026-02-19 10:46 | 44.08234 | 10.37448 | 36599 ft | 521 kts | 165° |
| 2026-02-19 10:46 | 44.01441 | 10.40994 | 36610 ft | 523 kts | 165° |
| 2026-02-19 10:47 | 43.94623 | 10.44551 | 36644 ft | 523 kts | 165° |
| 2026-02-19 10:47 | 43.87790 | 10.48105 | 36660 ft | 525 kts | 165° |
| 2026-02-19 10:48 | 43.80951 | 10.51659 | 36674 ft | 526 kts | 165° |
| 2026-02-19 10:48 | 43.70621 | 10.56872 | 36676 ft | 527 kts | 167° |
| 2026-02-19 10:49 | 43.63649 | 10.60043 | 36670 ft | 527 kts | 168° |
| 2026-02-19 10:49 | 43.56716 | 10.63160 | 36666 ft | 529 kts | 167° |
| 2026-02-19 10:50 | 43.49718 | 10.66378 | 36663 ft | 530 kts | 167° |
| 2026-02-19 10:50 | 43.42712 | 10.69638 | 36653 ft | 532 kts | 167° |
| 2026-02-19 10:51 | 43.35695 | 10.72893 | 36656 ft | 533 kts | 167° |
| 2026-02-19 10:51 | 43.28651 | 10.76130 | 36659 ft | 535 kts | 167° |
| 2026-02-19 10:52 | 43.18022 | 10.80977 | 36281 ft | 539 kts | 167° |
| 2026-02-19 10:52 | 43.14436 | 10.82612 | 35376 ft | 547 kts | 167° |
| 2026-02-19 10:53 | 43.10808 | 10.84265 | 34469 ft | 554 kts | 167° |
| 2026-02-19 10:53 | 43.07119 | 10.85945 | 33395 ft | 564 kts | 167° |
| 2026-02-19 10:53 | 43.03368 | 10.87652 | 32462 ft | 569 kts | 166° |
| 2026-02-19 10:53 | 42.99578 | 10.89376 | 31201 ft | 580 kts | 166° |
| 2026-02-19 10:54 | 42.95746 | 10.91118 | 30439 ft | 579 kts | 166° |
| 2026-02-19 10:54 | 42.91936 | 10.92851 | 28855 ft | 578 kts | 166° |
| 2026-02-19 10:54 | 42.88106 | 10.94586 | 27353 ft | 576 kts | 166° |
| 2026-02-19 10:54 | 42.84407 | 10.96368 | 26958 ft | 552 kts | 159° |
| 2026-02-19 10:55 | 42.81123 | 10.98839 | 26803 ft | 526 kts | 145° |
| 2026-02-19 10:55 | 42.78380 | 11.01970 | 26330 ft | 507 kts | 130° |
| 2026-02-19 10:55 | 42.76249 | 11.05666 | 25986 ft | 491 kts | 117° |
| 2026-02-19 10:55 | 42.74426 | 11.09592 | 25699 ft | 490 kts | 117° |
| 2026-02-19 10:56 | 42.72601 | 11.13490 | 25054 ft | 485 kts | 118° |
| 2026-02-19 10:56 | 42.68994 | 11.21085 | 23883 ft | 469 kts | 118° |
| 2026-02-19 10:56 | 42.67255 | 11.24711 | 23701 ft | 448 kts | 118° |
| 2026-02-19 10:57 | 42.65578 | 11.28208 | 23239 ft | 436 kts | 118° |
| 2026-02-19 10:57 | 42.63945 | 11.31628 | 22620 ft | 428 kts | 118° |
| 2026-02-19 10:57 | 42.62349 | 11.34984 | 21984 ft | 419 kts | 118° |
| 2026-02-19 10:57 | 42.60783 | 11.38279 | 21393 ft | 411 kts | 119° |
| 2026-02-19 10:58 | 42.59250 | 11.41500 | 20810 ft | 403 kts | 119° |
| 2026-02-19 10:58 | 42.57744 | 11.44667 | 20235 ft | 395 kts | 119° |
| 2026-02-19 10:58 | 42.56129 | 11.47640 | 19664 ft | 390 kts | 129° |
| 2026-02-19 10:58 | 42.54209 | 11.50197 | 19115 ft | 383 kts | 140° |
| 2026-02-19 10:59 | 42.52061 | 11.52269 | 18573 ft | 376 kts | 150° |
| 2026-02-19 10:59 | 42.49751 | 11.53838 | 18043 ft | 367 kts | 160° |
| 2026-02-19 10:59 | 42.47368 | 11.54996 | 17381 ft | 361 kts | 163° |
| 2026-02-19 10:59 | 42.44998 | 11.56103 | 16940 ft | 360 kts | 163° |
| 2026-02-19 11:00 | 42.42655 | 11.57199 | 16814 ft | 354 kts | 163° |
| 2026-02-19 11:00 | 42.37972 | 11.59398 | 16295 ft | 358 kts | 162° |
| 2026-02-19 11:00 | 42.35624 | 11.60500 | 15912 ft | 357 kts | 162° |
| 2026-02-19 11:01 | 42.33287 | 11.61593 | 15643 ft | 352 kts | 162° |
| 2026-02-19 11:01 | 42.31007 | 11.62656 | 15514 ft | 343 kts | 162° |
| 2026-02-19 11:01 | 42.28773 | 11.63695 | 15390 ft | 335 kts | 162° |
| 2026-02-19 11:01 | 42.26596 | 11.64708 | 15241 ft | 327 kts | 162° |
| 2026-02-19 11:02 | 42.24462 | 11.65680 | 15068 ft | 321 kts | 163° |
| 2026-02-19 11:02 | 42.22369 | 11.66590 | 14808 ft | 319 kts | 164° |
| 2026-02-19 11:02 | 42.20259 | 11.67488 | 14528 ft | 317 kts | 164° |
| 2026-02-19 11:02 | 42.18161 | 11.68375 | 14261 ft | 315 kts | 164° |
| 2026-02-19 11:03 | 42.16078 | 11.69258 | 13992 ft | 313 kts | 164° |
| 2026-02-19 11:03 | 42.14008 | 11.70148 | 13717 ft | 311 kts | 161° |
| 2026-02-19 11:03 | 42.12132 | 11.71545 | 13459 ft | 308 kts | 138° |
| 2026-02-19 11:03 | 42.10776 | 11.73707 | 13181 ft | 299 kts | 114° |
| 2026-02-19 11:04 | 42.10105 | 11.76268 | 12892 ft | 287 kts | 92° |
| 2026-02-19 11:04 | 42.10748 | 11.81230 | 12341 ft | 260 kts | 53° |
| 2026-02-19 11:04 | 42.11828 | 11.83111 | 12071 ft | 249 kts | 36° |
| 2026-02-19 11:05 | 42.13212 | 11.84415 | 11806 ft | 239 kts | 20° |
| 2026-02-19 11:05 | 42.14750 | 11.85158 | 11549 ft | 233 kts | 12° |
| 2026-02-19 11:05 | 42.16294 | 11.85789 | 11293 ft | 231 kts | 12° |
| 2026-02-19 11:05 | 42.17828 | 11.86424 | 11063 ft | 230 kts | 13° |
| 2026-02-19 11:06 | 42.19351 | 11.87060 | 10815 ft | 228 kts | 13° |
| 2026-02-19 11:06 | 42.20865 | 11.87691 | 10551 ft | 225 kts | 13° |
| 2026-02-19 11:06 | 42.22332 | 11.88306 | 10298 ft | 217 kts | 13° |
| 2026-02-19 11:06 | 42.23748 | 11.88899 | 10049 ft | 208 kts | 13° |
| 2026-02-19 11:07 | 42.25097 | 11.89506 | 9799 ft | 203 kts | 20° |
| 2026-02-19 11:07 | 42.26271 | 11.90556 | 9646 ft | 205 kts | 37° |
| 2026-02-19 11:07 | 42.27161 | 11.92106 | 9523 ft | 213 kts | 56° |
| 2026-02-19 11:07 | 42.27525 | 11.93333 | 9424 ft | 212 kts | 69° |
| 2026-02-19 11:08 | 42.27608 | 11.95938 | 9242 ft | 208 kts | 95° |
| 2026-02-19 11:08 | 42.26558 | 11.98868 | 9009 ft | 214 kts | 129° |
| 2026-02-19 11:08 | 42.25392 | 12.00123 | 8868 ft | 216 kts | 151° |
| 2026-02-19 11:09 | 42.23986 | 12.00783 | 8617 ft | 214 kts | 170° |
| 2026-02-19 11:09 | 42.22563 | 12.01367 | 8347 ft | 214 kts | 153° |
| 2026-02-19 11:09 | 42.21249 | 12.02376 | 7846 ft | 221 kts | 146° |
| 2026-02-19 11:09 | 42.19960 | 12.03522 | 7462 ft | 222 kts | 144° |
| 2026-02-19 11:10 | 42.18685 | 12.04671 | 7146 ft | 219 kts | 144° |
| 2026-02-19 11:10 | 42.17425 | 12.05784 | 6759 ft | 215 kts | 145° |
| 2026-02-19 11:10 | 42.16186 | 12.06855 | 6468 ft | 212 kts | 145° |
| 2026-02-19 11:10 | 42.14957 | 12.07901 | 6186 ft | 206 kts | 145° |
| 2026-02-19 11:11 | 42.13754 | 12.08917 | 5927 ft | 202 kts | 146° |
| 2026-02-19 11:11 | 42.12557 | 12.09922 | 5762 ft | 203 kts | 146° |
| 2026-02-19 11:11 | 42.11360 | 12.10922 | 5511 ft | 202 kts | 146° |
| 2026-02-19 11:11 | 42.10167 | 12.11915 | 5238 ft | 201 kts | 146° |
| 2026-02-19 11:12 | 42.08978 | 12.12902 | 4956 ft | 200 kts | 146° |
| 2026-02-19 11:12 | 42.06623 | 12.14854 | 4417 ft | 199 kts | 146° |
| 2026-02-19 11:12 | 42.05448 | 12.15827 | 4131 ft | 198 kts | 146° |
| 2026-02-19 11:13 | 42.04277 | 12.16796 | 3853 ft | 198 kts | 147° |
| 2026-02-19 11:13 | 42.03104 | 12.17764 | 3583 ft | 197 kts | 148° |
| 2026-02-19 11:13 | 42.01918 | 12.18681 | 3356 ft | 197 kts | 155° |
| 2026-02-19 11:13 | 42.00647 | 12.19364 | 3127 ft | 196 kts | 162° |
| 2026-02-19 11:14 | 41.99362 | 12.19938 | 2872 ft | 193 kts | 163° |
| 2026-02-19 11:14 | 41.98116 | 12.20470 | 2622 ft | 189 kts | 164° |
| 2026-02-19 11:14 | 41.96868 | 12.20996 | 2376 ft | 185 kts | 166° |
| 2026-02-19 11:14 | 41.95651 | 12.21509 | 2123 ft | 179 kts | 166° |
| 2026-02-19 11:15 | 41.94494 | 12.21996 | 1869 ft | 170 kts | 167° |
| 2026-02-19 11:15 | 41.93388 | 12.22461 | 1651 ft | 164 kts | 167° |
| 2026-02-19 11:15 | 41.92301 | 12.22917 | 1435 ft | 163 kts | 166° |
| 2026-02-19 11:15 | 41.91214 | 12.23373 | 1212 ft | 164 kts | 167° |
| 2026-02-19 11:16 | 41.90124 | 12.23830 | 978 ft | 164 kts | 166° |
| 2026-02-19 11:16 | 41.88071 | 12.24693 | 787 ft | 143 kts | 165° |
| 2026-02-19 11:16 | 41.87163 | 12.25079 | 616 ft | 132 kts | 163° |
| 2026-02-19 11:17 | 41.86296 | 12.25457 | 463 ft | 132 kts | 162° |
| 2026-02-19 11:17 | 41.85412 | 12.25809 | 239 ft | 131 kts | 161° |
| 2026-02-19 11:17 | 41.84542 | 12.26177 | 57 ft | 130 kts | 161° |
| 2026-02-19 11:17 | 41.83715 | 12.26519 | 17 ft | 109 kts | 162° |
| 2026-02-19 11:18 | 41.83155 | 12.26755 | 10 ft | 59 kts | 164° |
| 2026-02-19 11:18 | 41.82920 | 12.26849 | 12 ft | 17 kts | 166° |
| 2026-02-19 11:18 | 41.82806 | 12.26874 | 13 ft | 16 kts | 173° |
| 2026-02-19 11:18 | 41.82689 | 12.26870 | 11 ft | 18 kts | 179° |
| 2026-02-19 11:19 | 41.82568 | 12.26857 | 10 ft | 17 kts | 195° |
| 2026-02-19 11:19 | 41.82460 | 12.26796 | 11 ft | 17 kts | 195° |
| 2026-02-19 11:19 | 41.82343 | 12.26780 | 11 ft | 17 kts | 178° |
| 2026-02-19 11:19 | 41.82229 | 12.26823 | 11 ft | 17 kts | 159° |
| 2026-02-19 11:20 | 41.82113 | 12.26863 | 12 ft | 16 kts | 168° |
| 2026-02-19 11:20 | 41.81893 | 12.26961 | 12 ft | 18 kts | 161° |
| 2026-02-19 11:20 | 41.81768 | 12.27014 | 12 ft | 20 kts | 163° |
| 2026-02-19 11:21 | 41.81631 | 12.27069 | 12 ft | 21 kts | 163° |
| 2026-02-19 11:21 | 41.81484 | 12.27132 | 12 ft | 23 kts | 163° |
| 2026-02-19 11:21 | 41.81326 | 12.27199 | 13 ft | 24 kts | 162° |
| 2026-02-19 11:21 | 41.81159 | 12.27267 | 12 ft | 26 kts | 162° |
| 2026-02-19 11:22 | 41.81034 | 12.27320 | 12 ft | 16 kts | 163° |
| 2026-02-19 11:22 | 41.80919 | 12.27353 | 13 ft | 18 kts | 181° |
| 2026-02-19 11:22 | 41.80787 | 12.27324 | 13 ft | 20 kts | 189° |
| 2026-02-19 11:22 | 41.80662 | 12.27241 | 13 ft | 21 kts | 239° |
| 2026-02-19 11:23 | 41.80621 | 12.27099 | 13 ft | 17 kts | 250° |
| 2026-02-19 11:23 | 41.80579 | 12.26941 | 13 ft | 19 kts | 249° |
| 2026-02-19 11:23 | 41.80529 | 12.26766 | 16 ft | 21 kts | 251° |
| 2026-02-19 11:23 | 41.80478 | 12.26583 | 15 ft | 20 kts | 249° |
| 2026-02-19 11:24 | 41.80426 | 12.26396 | 17 ft | 23 kts | 249° |
| 2026-02-19 11:24 | 41.80301 | 12.25947 | 16 ft | 28 kts | 250° |
| 2026-02-19 11:24 | 41.80239 | 12.25717 | 15 ft | 26 kts | 249° |
| 2026-02-19 11:25 | 41.80177 | 12.25484 | 15 ft | 24 kts | 249° |
| 2026-02-19 11:25 | 41.80137 | 12.25343 | 15 ft | 17 kts | 251° |
| 2026-02-19 11:25 | 41.80078 | 12.25195 | 14 ft | 19 kts | 212° |
| 2026-02-19 11:25 | 41.79968 | 12.25125 | 14 ft | 14 kts | 205° |
| 2026-02-19 11:26 | 41.79874 | 12.25067 | 14 ft | 16 kts | 205° |
| 2026-02-19 11:26 | 41.79807 | 12.25040 | 14 ft | 6 kts | 146° |
| 2026-02-19 11:26 | 41.79786 | 12.25100 | 14 ft | 5 kts | 115° |
| 2026-02-19 11:26 | 41.79776 | 12.25127 | 15 ft | 3 kts | 115° |
| 2026-02-19 11:27 | 41.79774 | 12.25134 | 15 ft | 0 kts | 116° |